createdAt,value
2017-09-10T00:00:30.606Z,998.3
2017-09-10T00:01:32.023Z,998.3
2017-09-10T00:02:33.439Z,998.3
2017-09-10T00:03:34.856Z,998.3
2017-09-10T00:04:36.270Z,998.3
2017-09-10T00:05:37.686Z,998.4
2017-09-10T00:06:39.102Z,998.4
2017-09-10T00:07:40.518Z,998.4
2017-09-10T00:08:41.935Z,998.4
2017-09-10T00:09:43.350Z,998.4
2017-09-10T00:10:44.767Z,998.4
2017-09-10T00:11:46.183Z,998.4
2017-09-10T00:12:47.601Z,998.4
2017-09-10T00:13:49.017Z,998.5
2017-09-10T00:14:50.431Z,998.4
2017-09-10T00:15:51.851Z,998.4
2017-09-10T00:16:53.264Z,998.4
2017-09-10T00:17:54.681Z,998.4
2017-09-10T00:18:56.096Z,998.4
2017-09-10T00:19:57.512Z,998.3
2017-09-10T00:20:58.928Z,998.3
2017-09-10T00:22:00.344Z,998.4
2017-09-10T00:23:01.757Z,998.4
2017-09-10T00:24:03.176Z,998.4
2017-09-10T00:25:04.592Z,998.4
2017-09-10T00:26:06.009Z,998.4
2017-09-10T00:27:07.423Z,998.4
2017-09-10T00:28:08.841Z,998.4
2017-09-10T00:29:10.256Z,998.4
2017-09-10T00:30:11.671Z,998.5
2017-09-10T00:31:13.088Z,998.5
2017-09-10T00:32:14.504Z,998.5
2017-09-10T00:33:15.917Z,998.5
2017-09-10T00:34:17.336Z,998.4
2017-09-10T00:35:18.752Z,998.4
2017-09-10T00:36:20.169Z,998.5
2017-09-10T00:37:21.584Z,998.5
2017-09-10T00:38:23.000Z,998.5
2017-09-10T00:39:24.416Z,998.5
2017-09-10T00:40:25.832Z,998.5
2017-09-10T00:41:27.250Z,998.5
2017-09-10T00:42:28.663Z,998.4
2017-09-10T00:43:30.079Z,998.5
2017-09-10T00:44:31.502Z,998.5
2017-09-10T00:45:32.921Z,998.4
2017-09-10T00:46:34.335Z,998.5
2017-09-10T00:47:35.747Z,998.4
2017-09-10T00:48:37.176Z,998.5
2017-09-10T00:49:38.590Z,998.5
2017-09-10T00:50:40.005Z,998.5
2017-09-10T00:51:41.419Z,998.5
2017-09-10T00:52:42.835Z,998.5
2017-09-10T00:53:44.251Z,998.5
2017-09-10T00:54:45.667Z,998.6
2017-09-10T00:55:47.081Z,998.6
2017-09-10T00:56:48.495Z,998.6
2017-09-10T00:57:49.909Z,998.6
2017-09-10T00:58:51.327Z,998.6
2017-09-10T00:59:52.741Z,998.6
2017-09-10T01:00:54.163Z,998.6
2017-09-10T01:01:55.577Z,998.6
2017-09-10T01:02:56.991Z,998.6
2017-09-10T01:03:58.408Z,998.6
2017-09-10T01:04:59.826Z,998.6
2017-09-10T01:06:01.242Z,998.6
2017-09-10T01:07:02.659Z,998.6
2017-09-10T01:08:04.084Z,998.6
2017-09-10T01:09:05.520Z,998.6
2017-09-10T01:10:06.924Z,998.7
2017-09-10T01:11:08.341Z,998.7
2017-09-10T01:12:09.758Z,998.7
2017-09-10T01:13:11.176Z,998.7
2017-09-10T01:14:12.596Z,998.7
2017-09-10T01:15:14.010Z,998.7
2017-09-10T01:16:15.426Z,998.7
2017-09-10T01:17:16.831Z,998.7
2017-09-10T01:18:18.257Z,998.8
2017-09-10T01:19:19.673Z,998.8
2017-09-10T01:20:21.086Z,998.8
2017-09-10T01:21:22.502Z,998.8
2017-09-10T01:22:38.893Z,998.8
2017-09-10T01:23:40.313Z,998.8
2017-09-10T01:24:41.729Z,998.8
2017-09-10T01:25:43.144Z,998.8
2017-09-10T01:26:44.559Z,998.8
2017-09-10T01:27:45.979Z,998.8
2017-09-10T01:28:47.395Z,998.9
2017-09-10T01:29:48.815Z,998.8
2017-09-10T01:30:50.225Z,998.9
2017-09-10T01:31:51.641Z,998.9
2017-09-10T01:32:53.057Z,998.9
2017-09-10T01:33:54.472Z,998.9
2017-09-10T01:34:55.889Z,998.9
2017-09-10T01:35:57.308Z,998.9
2017-09-10T01:36:58.724Z,998.9
2017-09-10T01:38:00.140Z,998.9
2017-09-10T01:39:01.554Z,998.9
2017-09-10T01:40:02.967Z,998.9
2017-09-10T01:41:04.385Z,998.9
2017-09-10T01:42:05.800Z,999.0
2017-09-10T01:43:07.213Z,999.0
2017-09-10T01:44:08.629Z,998.9
2017-09-10T01:45:10.045Z,998.9
2017-09-10T01:46:11.464Z,998.9
2017-09-10T01:47:12.876Z,998.9
2017-09-10T01:48:14.291Z,998.9
2017-09-10T01:49:15.709Z,998.9
2017-09-10T01:50:17.123Z,998.9
2017-09-10T01:51:18.539Z,998.9
2017-09-10T01:52:19.952Z,999.0
2017-09-10T01:53:21.368Z,999.0
2017-09-10T01:54:22.785Z,999.0
2017-09-10T01:55:24.203Z,999.0
2017-09-10T01:56:25.624Z,999.1
2017-09-10T01:57:27.032Z,999.1
2017-09-10T01:58:28.448Z,999.1
2017-09-10T01:59:29.864Z,999.1
2017-09-10T02:00:31.279Z,999.1
2017-09-10T02:01:32.695Z,999.2
2017-09-10T02:02:34.117Z,999.2
2017-09-10T02:03:35.534Z,999.2
2017-09-10T02:04:36.950Z,999.2
2017-09-10T02:05:38.368Z,999.2
2017-09-10T02:06:39.782Z,999.2
2017-09-10T02:07:41.205Z,999.2
2017-09-10T02:08:42.616Z,999.1
2017-09-10T02:09:44.033Z,999.2
2017-09-10T02:10:45.448Z,999.2
2017-09-10T02:11:46.863Z,999.2
2017-09-10T02:12:48.281Z,999.2
2017-09-10T02:13:49.696Z,999.3
2017-09-10T02:14:51.110Z,999.3
2017-09-10T02:15:52.525Z,999.3
2017-09-10T02:16:53.941Z,999.3
2017-09-10T02:17:55.357Z,999.3
2017-09-10T02:18:56.774Z,999.3
2017-09-10T02:19:58.192Z,999.3
2017-09-10T02:20:59.607Z,999.3
2017-09-10T02:22:01.022Z,999.3
2017-09-10T02:23:02.437Z,999.3
2017-09-10T02:24:03.856Z,999.3
2017-09-10T02:25:05.261Z,999.3
2017-09-10T02:26:06.684Z,999.3
2017-09-10T02:27:08.101Z,999.4
2017-09-10T02:28:09.515Z,999.4
2017-09-10T02:29:10.930Z,999.4
2017-09-10T02:30:12.348Z,999.4
2017-09-10T02:31:13.763Z,999.4
2017-09-10T02:32:15.177Z,999.4
2017-09-10T02:33:16.591Z,999.4
2017-09-10T02:34:18.008Z,999.4
2017-09-10T02:35:19.425Z,999.4
2017-09-10T02:36:20.843Z,999.4
2017-09-10T02:37:22.257Z,999.4
2017-09-10T02:38:23.672Z,999.4
2017-09-10T02:39:25.087Z,999.4
2017-09-10T02:40:26.502Z,999.4
2017-09-10T02:41:27.919Z,999.4
2017-09-10T02:42:29.336Z,999.4
2017-09-10T02:43:30.751Z,999.4
2017-09-10T02:44:32.166Z,999.4
2017-09-10T02:45:33.585Z,999.4
2017-09-10T02:46:35.001Z,999.4
2017-09-10T02:47:36.420Z,999.4
2017-09-10T02:48:37.833Z,999.4
2017-09-10T02:49:39.249Z,999.4
2017-09-10T02:50:40.667Z,999.4
2017-09-10T02:51:42.081Z,999.5
2017-09-10T02:52:43.494Z,999.4
2017-09-10T02:53:44.910Z,999.5
2017-09-10T02:54:46.323Z,999.5
2017-09-10T02:55:47.741Z,999.5
2017-09-10T02:56:49.160Z,999.6
2017-09-10T02:57:50.576Z,999.6
2017-09-10T02:58:51.991Z,999.6
2017-09-10T02:59:53.406Z,999.6
2017-09-10T03:00:54.822Z,999.6
2017-09-10T03:01:56.237Z,999.6
2017-09-10T03:02:57.653Z,999.6
2017-09-10T03:03:59.068Z,999.6
2017-09-10T03:05:00.483Z,999.6
2017-09-10T03:06:01.900Z,999.6
2017-09-10T03:07:03.321Z,999.7
2017-09-10T03:08:04.738Z,999.7
2017-09-10T03:09:06.153Z,999.7
2017-09-10T03:10:07.569Z,999.7
2017-09-10T03:11:08.985Z,999.7
2017-09-10T03:12:10.402Z,999.7
2017-09-10T03:13:11.819Z,999.7
2017-09-10T03:14:13.235Z,999.7
2017-09-10T03:15:14.659Z,999.7
2017-09-10T03:16:16.071Z,999.7
2017-09-10T03:17:17.490Z,999.7
2017-09-10T03:18:18.916Z,999.8
2017-09-10T03:19:20.331Z,999.7
2017-09-10T03:20:21.745Z,999.8
2017-09-10T03:21:23.161Z,999.8
2017-09-10T03:22:24.576Z,999.8
2017-09-10T03:23:25.992Z,999.8
2017-09-10T03:24:27.407Z,999.8
2017-09-10T03:25:28.823Z,999.8
2017-09-10T03:26:30.238Z,999.8
2017-09-10T03:27:31.653Z,999.8
2017-09-10T03:28:33.069Z,999.8
2017-09-10T03:29:34.485Z,999.8
2017-09-10T03:30:35.904Z,999.9
2017-09-10T03:31:37.319Z,999.8
2017-09-10T03:32:38.735Z,999.9
2017-09-10T03:33:40.152Z,999.9
2017-09-10T03:34:41.567Z,999.9
2017-09-10T03:35:42.984Z,999.9
2017-09-10T03:36:44.400Z,999.9
2017-09-10T03:37:45.817Z,999.9
2017-09-10T03:38:47.230Z,999.9
2017-09-10T03:39:48.644Z,999.9
2017-09-10T03:40:50.062Z,999.9
2017-09-10T03:41:51.477Z,999.9
2017-09-10T03:42:52.893Z,999.9
2017-09-10T03:43:54.311Z,999.9
2017-09-10T03:44:55.725Z,999.9
2017-09-10T03:45:57.158Z,999.9
2017-09-10T03:46:58.576Z,999.9
2017-09-10T03:47:59.998Z,1000.0
2017-09-10T03:49:01.412Z,999.9
2017-09-10T03:50:02.833Z,999.9
2017-09-10T03:51:04.248Z,1000.0
2017-09-10T03:52:05.664Z,1000.0
2017-09-10T03:53:07.083Z,1000.0
2017-09-10T03:54:08.501Z,1000.0
2017-09-10T03:55:09.915Z,1000.1
2017-09-10T03:56:11.332Z,1000.0
2017-09-10T03:57:12.750Z,1000.1
2017-09-10T03:58:14.171Z,1000.0
2017-09-10T03:59:15.588Z,1000.0
2017-09-10T04:00:17.004Z,1000.0
2017-09-10T04:01:18.423Z,1000.0
2017-09-10T04:02:19.837Z,1000.0
2017-09-10T04:03:21.257Z,1000.0
2017-09-10T04:04:22.673Z,1000.0
2017-09-10T04:05:24.091Z,1000.0
2017-09-10T04:06:25.506Z,1000.1
2017-09-10T04:07:26.922Z,1000.1
2017-09-10T04:08:28.338Z,1000.0
2017-09-10T04:09:29.751Z,1000.0
2017-09-10T04:10:31.184Z,1000.1
2017-09-10T04:11:32.602Z,1000.1
2017-09-10T04:12:34.019Z,1000.1
2017-09-10T04:13:35.432Z,1000.1
2017-09-10T04:14:36.851Z,1000.0
2017-09-10T04:15:38.267Z,1000.0
2017-09-10T04:16:39.686Z,1000.0
2017-09-10T04:17:41.101Z,1000.1
2017-09-10T04:18:42.516Z,1000.1
2017-09-10T04:19:43.933Z,1000.0
2017-09-10T04:20:45.352Z,1000.1
2017-09-10T04:21:46.768Z,1000.1
2017-09-10T04:22:48.184Z,1000.0
2017-09-10T04:23:49.602Z,1000.0
2017-09-10T04:24:51.019Z,1000.0
2017-09-10T04:25:52.435Z,1000.1
2017-09-10T04:26:53.851Z,1000.1
2017-09-10T04:27:55.269Z,1000.0
2017-09-10T04:28:56.686Z,1000.0
2017-09-10T04:29:58.100Z,1000.0
2017-09-10T04:30:59.518Z,1000.0
2017-09-10T04:32:00.933Z,1000.0
2017-09-10T04:33:02.349Z,1000.0
2017-09-10T04:34:03.765Z,1000.1
2017-09-10T04:35:05.182Z,1000.1
2017-09-10T04:36:06.596Z,1000.1
2017-09-10T04:37:08.016Z,1000.1
2017-09-10T04:38:09.447Z,1000.1
2017-09-10T04:39:10.867Z,1000.1
2017-09-10T04:40:12.285Z,1000.2
2017-09-10T04:41:13.698Z,1000.2
2017-09-10T04:42:15.122Z,1000.2
2017-09-10T04:43:16.542Z,1000.2
2017-09-10T04:44:17.958Z,1000.2
2017-09-10T04:45:19.386Z,1000.2
2017-09-10T04:46:20.792Z,1000.2
2017-09-10T04:47:22.207Z,1000.2
2017-09-10T04:48:23.626Z,1000.2
2017-09-10T04:49:25.042Z,1000.2
2017-09-10T04:50:26.465Z,1000.2
2017-09-10T04:51:27.875Z,1000.2
2017-09-10T04:52:29.289Z,1000.2
2017-09-10T04:53:30.706Z,1000.3
2017-09-10T04:54:32.121Z,1000.3
2017-09-10T04:55:33.536Z,1000.2
2017-09-10T04:56:34.951Z,1000.2
2017-09-10T04:57:36.368Z,1000.3
2017-09-10T04:58:37.783Z,1000.3
2017-09-10T04:59:39.197Z,1000.3
2017-09-10T05:00:40.616Z,1000.3
2017-09-10T05:01:42.031Z,1000.4
2017-09-10T05:02:43.448Z,1000.4
2017-09-10T05:03:44.868Z,1000.4
2017-09-10T05:04:46.284Z,1000.4
2017-09-10T05:05:47.699Z,1000.4
2017-09-10T05:06:49.121Z,1000.4
2017-09-10T05:07:50.540Z,1000.5
2017-09-10T05:08:51.966Z,1000.5
2017-09-10T05:09:53.380Z,1000.5
2017-09-10T05:10:54.798Z,1000.5
2017-09-10T05:11:56.220Z,1000.5
2017-09-10T05:12:57.636Z,1000.5
2017-09-10T05:13:59.059Z,1000.5
2017-09-10T05:15:00.478Z,1000.5
2017-09-10T05:16:01.894Z,1000.5
2017-09-10T05:17:03.312Z,1000.5
2017-09-10T05:18:04.732Z,1000.5
2017-09-10T05:19:06.150Z,1000.5
2017-09-10T05:20:07.569Z,1000.5
2017-09-10T05:21:08.988Z,1000.6
2017-09-10T05:22:10.404Z,1000.6
2017-09-10T05:23:11.822Z,1000.6
2017-09-10T05:24:13.238Z,1000.6
2017-09-10T05:25:14.654Z,1000.6
2017-09-10T05:26:16.071Z,1000.6
2017-09-10T05:27:17.492Z,1000.6
2017-09-10T05:28:18.910Z,1000.7
2017-09-10T05:29:20.326Z,1000.7
2017-09-10T05:30:21.742Z,1000.7
2017-09-10T05:31:23.161Z,1000.6
2017-09-10T05:32:24.579Z,1000.6
2017-09-10T05:33:25.992Z,1000.7
2017-09-10T05:34:27.410Z,1000.6
2017-09-10T05:35:28.824Z,1000.6
2017-09-10T05:36:30.248Z,1000.6
2017-09-10T05:37:31.668Z,1000.6
2017-09-10T05:38:33.084Z,1000.7
2017-09-10T05:39:34.505Z,1000.6
2017-09-10T05:40:35.922Z,1000.7
2017-09-10T05:41:37.339Z,1000.7
2017-09-10T05:42:38.755Z,1000.7
2017-09-10T05:43:40.173Z,1000.7
2017-09-10T05:44:41.593Z,1000.8
2017-09-10T05:45:43.023Z,1000.8
2017-09-10T05:46:44.439Z,1000.8
2017-09-10T05:47:45.860Z,1000.8
2017-09-10T05:48:47.278Z,1000.8
2017-09-10T05:49:48.698Z,1000.8
2017-09-10T05:50:50.116Z,1000.8
2017-09-10T05:51:51.536Z,1000.8
2017-09-10T05:52:52.953Z,1000.9
2017-09-10T05:53:54.373Z,1000.9
2017-09-10T05:54:55.816Z,1000.9
2017-09-10T05:55:57.218Z,1000.9
2017-09-10T05:56:58.623Z,1000.9
2017-09-10T05:58:00.040Z,1000.9
2017-09-10T05:59:01.459Z,1000.9
2017-09-10T06:00:02.874Z,1000.9
2017-09-10T06:01:04.291Z,1000.9
2017-09-10T06:02:05.705Z,1001.0
2017-09-10T06:03:07.123Z,1001.1
2017-09-10T06:04:08.541Z,1001.0
2017-09-10T06:05:09.991Z,1001.1
2017-09-10T06:06:11.377Z,1001.1
2017-09-10T06:07:12.796Z,1001.1
2017-09-10T06:08:14.219Z,1001.1
2017-09-10T06:09:15.638Z,1001.1
2017-09-10T06:10:17.053Z,1001.1
2017-09-10T06:11:18.472Z,1001.1
2017-09-10T06:12:19.889Z,1001.1
2017-09-10T06:13:21.305Z,1001.1
2017-09-10T06:14:22.724Z,1001.1
2017-09-10T06:15:24.142Z,1001.2
2017-09-10T06:16:25.570Z,1001.1
2017-09-10T06:17:26.982Z,1001.2
2017-09-10T06:18:28.395Z,1001.2
2017-09-10T06:19:29.820Z,1001.2
2017-09-10T06:20:31.238Z,1001.1
2017-09-10T06:21:32.654Z,1001.1
2017-09-10T06:22:34.076Z,1001.1
2017-09-10T06:23:35.495Z,1001.1
2017-09-10T06:24:36.916Z,1001.1
2017-09-10T06:25:38.331Z,1001.2
2017-09-10T06:26:39.748Z,1001.2
2017-09-10T06:27:41.165Z,1001.2
2017-09-10T06:28:42.583Z,1001.2
2017-09-10T06:29:44.002Z,1001.2
2017-09-10T06:30:45.435Z,1001.2
2017-09-10T06:31:46.837Z,1001.2
2017-09-10T06:32:48.255Z,1001.2
2017-09-10T06:33:49.673Z,1001.2
2017-09-10T06:34:51.091Z,1001.2
2017-09-10T06:35:52.507Z,1001.2
2017-09-10T06:36:53.925Z,1001.2
2017-09-10T06:37:55.342Z,1001.2
2017-09-10T06:38:56.762Z,1001.2
2017-09-10T06:39:58.182Z,1001.2
2017-09-10T06:40:59.598Z,1001.2
2017-09-10T06:42:01.014Z,1001.3
2017-09-10T06:43:02.433Z,1001.3
2017-09-10T06:44:03.850Z,1001.3
2017-09-10T06:45:05.266Z,1001.3
2017-09-10T06:46:06.682Z,1001.3
2017-09-10T06:47:08.102Z,1001.3
2017-09-10T06:48:09.527Z,1001.3
2017-09-10T06:49:10.936Z,1001.3
2017-09-10T06:50:12.355Z,1001.3
2017-09-10T06:51:13.773Z,1001.2
2017-09-10T06:52:15.191Z,1001.2
2017-09-10T06:53:16.607Z,1001.2
2017-09-10T06:54:18.025Z,1001.2
2017-09-10T06:55:19.448Z,1001.2
2017-09-10T06:56:20.865Z,1001.2
2017-09-10T06:57:22.285Z,1001.2
2017-09-10T06:58:23.702Z,1001.2
2017-09-10T06:59:25.119Z,1001.2
2017-09-10T07:00:26.534Z,1001.2
2017-09-10T07:01:27.952Z,1001.1
2017-09-10T07:02:29.370Z,1001.2
2017-09-10T07:03:30.789Z,1001.2
2017-09-10T07:04:32.207Z,1001.2
2017-09-10T07:05:33.623Z,1001.2
2017-09-10T07:06:35.039Z,1001.2
2017-09-10T07:07:36.467Z,1001.2
2017-09-10T07:08:37.898Z,1001.2
2017-09-10T07:09:39.315Z,1001.2
2017-09-10T07:10:40.734Z,1001.2
2017-09-10T07:11:42.150Z,1001.2
2017-09-10T07:12:43.572Z,1001.3
2017-09-10T07:13:44.986Z,1001.2
2017-09-10T07:14:46.404Z,1001.2
2017-09-10T07:15:47.821Z,1001.2
2017-09-10T07:16:49.239Z,1001.2
2017-09-10T07:17:50.655Z,1001.2
2017-09-10T07:18:52.077Z,1001.2
2017-09-10T07:19:53.490Z,1001.2
2017-09-10T07:20:54.906Z,1001.2
2017-09-10T07:21:56.327Z,1001.2
2017-09-10T07:22:57.746Z,1001.2
2017-09-10T07:23:59.166Z,1001.2
2017-09-10T07:25:00.585Z,1001.1
2017-09-10T07:26:02.002Z,1001.1
2017-09-10T07:27:03.419Z,1001.1
2017-09-10T07:28:04.836Z,1001.1
2017-09-10T07:29:06.254Z,1001.1
2017-09-10T07:30:07.672Z,1001.1
2017-09-10T07:31:09.092Z,1001.1
2017-09-10T07:32:10.508Z,1001.2
2017-09-10T07:33:11.922Z,1001.2
2017-09-10T07:34:13.341Z,1001.2
2017-09-10T07:35:14.757Z,1001.3
2017-09-10T07:36:16.174Z,1001.2
2017-09-10T07:37:17.593Z,1001.3
2017-09-10T07:38:19.012Z,1001.3
2017-09-10T07:39:20.431Z,1001.3
2017-09-10T07:40:21.849Z,1001.3
2017-09-10T07:41:23.267Z,1001.2
2017-09-10T07:42:24.688Z,1001.3
2017-09-10T07:43:26.107Z,1001.3
2017-09-10T07:44:27.529Z,1001.3
2017-09-10T07:45:28.942Z,1001.3
2017-09-10T07:46:30.372Z,1001.3
2017-09-10T07:47:31.788Z,1001.3
2017-09-10T07:48:33.206Z,1001.3
2017-09-10T07:49:34.654Z,1001.3
2017-09-10T07:50:36.041Z,1001.3
2017-09-10T07:51:37.458Z,1001.3
2017-09-10T07:52:38.876Z,1001.3
2017-09-10T07:53:40.294Z,1001.3
2017-09-10T07:54:41.713Z,1001.3
2017-09-10T07:55:43.131Z,1001.3
2017-09-10T07:56:44.553Z,1001.3
2017-09-10T07:57:45.971Z,1001.3
2017-09-10T07:58:47.389Z,1001.4
2017-09-10T07:59:48.806Z,1001.3
2017-09-10T08:00:50.221Z,1001.4
2017-09-10T08:01:51.640Z,1001.3
2017-09-10T08:02:53.057Z,1001.4
2017-09-10T08:03:54.473Z,1001.3
2017-09-10T08:04:55.892Z,1001.3
2017-09-10T08:05:57.310Z,1001.3
2017-09-10T08:06:58.722Z,1001.3
2017-09-10T08:08:00.139Z,1001.3
2017-09-10T08:09:01.556Z,1001.3
2017-09-10T08:10:02.974Z,1001.3
2017-09-10T08:11:04.393Z,1001.3
2017-09-10T08:12:05.812Z,1001.3
2017-09-10T08:13:07.231Z,1001.3
2017-09-10T08:14:08.650Z,1001.3
2017-09-10T08:15:10.068Z,1001.3
2017-09-10T08:16:11.486Z,1001.3
2017-09-10T08:17:12.902Z,1001.2
2017-09-10T08:18:14.322Z,1001.2
2017-09-10T08:19:15.739Z,1001.2
2017-09-10T08:20:17.156Z,1001.2
2017-09-10T08:21:18.573Z,1001.2
2017-09-10T08:22:19.990Z,1001.2
2017-09-10T08:23:21.411Z,1001.2
2017-09-10T08:24:22.829Z,1001.2
2017-09-10T08:25:24.245Z,1001.2
2017-09-10T08:26:25.721Z,1001.2
2017-09-10T08:27:27.096Z,1001.2
2017-09-10T08:28:28.514Z,1001.2
2017-09-10T08:29:29.932Z,1001.2
2017-09-10T08:30:31.350Z,1001.2
2017-09-10T08:31:32.767Z,1001.2
2017-09-10T08:32:34.186Z,1001.2
2017-09-10T08:33:35.602Z,1001.2
2017-09-10T08:34:37.020Z,1001.2
2017-09-10T08:35:38.437Z,1001.3
2017-09-10T08:36:39.850Z,1001.2
2017-09-10T08:37:41.269Z,1001.2
2017-09-10T08:38:42.686Z,1001.2
2017-09-10T08:39:44.104Z,1001.2
2017-09-10T08:40:45.524Z,1001.2
2017-09-10T08:41:46.944Z,1001.2
2017-09-10T08:42:48.363Z,1001.2
2017-09-10T08:43:49.781Z,1001.2
2017-09-10T08:44:51.200Z,1001.2
2017-09-10T08:45:52.617Z,1001.2
2017-09-10T08:46:54.038Z,1001.1
2017-09-10T08:47:55.451Z,1001.1
2017-09-10T08:48:56.871Z,1001.2
2017-09-10T08:49:58.285Z,1001.2
2017-09-10T08:50:59.707Z,1001.2
2017-09-10T08:52:01.122Z,1001.2
2017-09-10T08:53:02.554Z,1001.2
2017-09-10T08:54:03.978Z,1001.2
2017-09-10T08:55:05.397Z,1001.2
2017-09-10T08:56:06.814Z,1001.2
2017-09-10T08:57:08.231Z,1001.3
2017-09-10T08:58:09.648Z,1001.3
2017-09-10T08:59:11.066Z,1001.3
2017-09-10T09:00:12.484Z,1001.3
2017-09-10T09:01:13.902Z,1001.3
2017-09-10T09:02:15.320Z,1001.3
2017-09-10T09:03:16.738Z,1001.3
2017-09-10T09:04:18.172Z,1001.3
2017-09-10T09:05:19.576Z,1001.3
2017-09-10T09:06:20.992Z,1001.3
2017-09-10T09:07:22.407Z,1001.3
2017-09-10T09:08:23.829Z,1001.3
2017-09-10T09:09:25.253Z,1001.3
2017-09-10T09:10:26.672Z,1001.4
2017-09-10T09:11:28.089Z,1001.4
2017-09-10T09:12:29.506Z,1001.3
2017-09-10T09:13:30.923Z,1001.3
2017-09-10T09:14:32.342Z,1001.3
2017-09-10T09:15:33.762Z,1001.3
2017-09-10T09:16:35.178Z,1001.3
2017-09-10T09:17:36.596Z,1001.3
2017-09-10T09:18:38.014Z,1001.3
2017-09-10T09:19:39.432Z,1001.3
2017-09-10T09:20:40.851Z,1001.3
2017-09-10T09:21:42.265Z,1001.3
2017-09-10T09:22:43.685Z,1001.3
2017-09-10T09:23:45.103Z,1001.3
2017-09-10T09:24:46.589Z,1001.3
2017-09-10T09:25:48.053Z,1001.3
2017-09-10T09:26:49.495Z,1001.3
2017-09-10T09:27:50.917Z,1001.2
2017-09-10T09:28:52.401Z,1001.2
2017-09-10T09:29:53.826Z,1001.3
2017-09-10T09:30:55.300Z,1001.3
2017-09-10T09:31:56.764Z,1001.3
2017-09-10T09:32:58.213Z,1001.3
2017-09-10T09:33:59.678Z,1001.2
2017-09-10T09:35:01.138Z,1001.2
2017-09-10T09:36:02.583Z,1001.2
2017-09-10T09:37:04.148Z,1001.2
2017-09-10T09:38:05.612Z,1001.2
2017-09-10T09:39:07.060Z,1001.2
2017-09-10T09:40:08.571Z,1001.2
2017-09-10T09:41:10.075Z,1001.2
2017-09-10T09:42:11.538Z,1001.2
2017-09-10T09:43:12.966Z,1001.2
2017-09-10T09:44:14.519Z,1001.3
2017-09-10T09:45:15.979Z,1001.3
2017-09-10T09:46:17.662Z,1001.3
2017-09-10T09:47:19.122Z,1001.2
2017-09-10T09:48:20.680Z,1001.2
2017-09-10T09:49:22.156Z,1001.1
2017-09-10T09:50:23.574Z,1001.2
2017-09-10T09:51:24.998Z,1001.1
2017-09-10T09:52:26.414Z,1001.2
2017-09-10T09:53:27.845Z,1001.2
2017-09-10T09:54:29.264Z,1001.2
2017-09-10T09:55:30.729Z,1001.2
2017-09-10T09:56:32.268Z,1001.2
2017-09-10T09:57:33.706Z,1001.2
2017-09-10T09:58:35.130Z,1001.2
2017-09-10T09:59:36.565Z,1001.1
2017-09-10T10:00:37.982Z,1001.2
2017-09-10T10:01:39.394Z,1001.2
2017-09-10T10:02:40.861Z,1001.2
2017-09-10T10:03:42.281Z,1001.1
2017-09-10T10:04:43.692Z,1001.1
2017-09-10T10:05:45.108Z,1001.1
2017-09-10T10:06:46.525Z,1001.1
2017-09-10T10:07:50.314Z,1001.1
2017-09-10T10:08:51.755Z,1001.1
2017-09-10T10:09:53.152Z,1001.1
2017-09-10T10:10:54.568Z,1001.2
2017-09-10T10:11:55.987Z,1001.1
2017-09-10T10:12:57.417Z,1001.2
2017-09-10T10:13:58.828Z,1001.1
2017-09-10T10:15:00.251Z,1001.0
2017-09-10T10:16:01.669Z,1001.1
2017-09-10T10:17:03.083Z,1001.1
2017-09-10T10:18:04.508Z,1001.1
2017-09-10T10:19:05.935Z,1001.1
2017-09-10T10:20:07.350Z,1001.1
2017-09-10T10:21:08.777Z,1001.1
2017-09-10T10:22:10.246Z,1001.1
2017-09-10T10:23:11.701Z,1001.1
2017-09-10T10:24:13.118Z,1001.1
2017-09-10T10:25:14.539Z,1001.1
2017-09-10T10:26:15.953Z,1001.1
2017-09-10T10:27:17.372Z,1001.0
2017-09-10T10:28:18.793Z,1001.0
2017-09-10T10:29:21.112Z,1001.0
2017-09-10T10:30:22.504Z,1001.0
2017-09-10T10:31:23.923Z,1001.0
2017-09-10T10:32:25.349Z,1001.0
2017-09-10T10:33:26.844Z,1001.0
2017-09-10T10:34:28.279Z,1001.0
2017-09-10T10:35:29.677Z,1001.1
2017-09-10T10:36:31.127Z,1001.1
2017-09-10T10:37:32.559Z,1001.0
2017-09-10T10:38:33.980Z,1001.1
2017-09-10T10:39:35.399Z,1001.0
2017-09-10T10:40:36.816Z,1001.1
2017-09-10T10:41:38.236Z,1001.0
2017-09-10T10:42:39.683Z,1001.0
2017-09-10T10:43:41.107Z,1001.0
2017-09-10T10:44:42.524Z,1001.0
2017-09-10T10:45:43.946Z,1000.9
2017-09-10T10:46:45.374Z,1000.9
2017-09-10T10:47:46.795Z,1001.0
2017-09-10T10:48:48.216Z,1001.0
2017-09-10T10:49:49.635Z,1001.1
2017-09-10T10:50:51.080Z,1001.0
2017-09-10T10:51:52.497Z,1001.1
2017-09-10T10:52:53.917Z,1001.1
2017-09-10T10:53:55.343Z,1001.0
2017-09-10T10:54:56.756Z,1001.0
2017-09-10T10:55:58.192Z,1001.0
2017-09-10T10:56:59.612Z,1001.0
2017-09-10T10:58:01.041Z,1001.1
2017-09-10T10:59:02.526Z,1001.0
2017-09-10T11:00:03.951Z,1001.0
2017-09-10T11:01:05.369Z,1001.0
2017-09-10T11:02:06.799Z,1001.0
2017-09-10T11:03:08.216Z,1001.1
2017-09-10T11:04:09.635Z,1001.0
2017-09-10T11:05:11.055Z,1001.1
2017-09-10T11:06:12.473Z,1001.1
2017-09-10T11:07:13.898Z,1001.1
2017-09-10T11:08:15.319Z,1001.1
2017-09-10T11:09:16.739Z,1001.1
2017-09-10T11:10:18.162Z,1001.1
2017-09-10T11:11:19.586Z,1001.1
2017-09-10T11:12:21.008Z,1001.0
2017-09-10T11:13:22.427Z,1001.0
2017-09-10T11:14:23.849Z,1001.0
2017-09-10T11:15:25.270Z,1001.1
2017-09-10T11:16:26.692Z,1001.0
2017-09-10T11:17:28.112Z,1001.1
2017-09-10T11:18:29.534Z,1001.1
2017-09-10T11:19:30.955Z,1001.2
2017-09-10T11:20:32.385Z,1001.1
2017-09-10T11:21:33.812Z,1001.1
2017-09-10T11:22:35.367Z,1001.0
2017-09-10T11:23:36.799Z,1001.0
2017-09-10T11:24:38.210Z,1000.9
2017-09-10T11:25:39.653Z,1000.9
2017-09-10T11:26:41.070Z,1001.0
2017-09-10T11:27:42.495Z,1000.9
2017-09-10T11:28:43.999Z,1000.9
2017-09-10T11:29:45.443Z,1000.9
2017-09-10T11:30:46.900Z,1001.0
2017-09-10T11:31:48.350Z,1001.0
2017-09-10T11:32:49.770Z,1000.9
2017-09-10T11:33:51.205Z,1000.9
2017-09-10T11:34:52.652Z,1000.9
2017-09-10T11:35:54.136Z,1000.9
2017-09-10T11:36:55.558Z,1000.8
2017-09-10T11:37:57.015Z,1000.8
2017-09-10T11:38:58.433Z,1000.8
2017-09-10T11:39:59.857Z,1000.8
2017-09-10T11:41:01.282Z,1000.7
2017-09-10T11:42:02.760Z,1000.7
2017-09-10T11:43:04.127Z,1000.6
2017-09-10T11:44:05.622Z,1000.7
2017-09-10T11:45:07.044Z,1000.8
2017-09-10T11:46:08.465Z,1000.7
2017-09-10T11:47:09.884Z,1000.7
2017-09-10T11:48:11.337Z,1000.7
2017-09-10T11:49:12.764Z,1000.7
2017-09-10T11:50:14.188Z,1000.7
2017-09-10T11:51:15.608Z,1000.7
2017-09-10T11:52:17.029Z,1000.7
2017-09-10T11:53:18.450Z,1000.6
2017-09-10T11:54:19.876Z,1000.7
2017-09-10T11:55:21.297Z,1000.7
2017-09-10T11:56:22.716Z,1000.8
2017-09-10T11:57:24.138Z,1000.7
2017-09-10T11:58:25.562Z,1000.7
2017-09-10T11:59:27.000Z,1000.7
2017-09-10T12:00:28.409Z,1000.7
2017-09-10T12:01:29.848Z,1000.7
2017-09-10T12:02:31.266Z,1000.7
2017-09-10T12:03:32.697Z,1000.7
2017-09-10T12:04:34.115Z,1000.6
2017-09-10T12:05:35.523Z,1000.6
2017-09-10T12:06:37.836Z,1000.7
2017-09-10T12:07:39.326Z,1000.6
2017-09-10T12:08:40.803Z,1000.7
2017-09-10T12:09:42.309Z,1000.7
2017-09-10T12:10:44.027Z,1000.5
2017-09-10T12:11:45.532Z,1000.5
2017-09-10T12:12:46.955Z,1000.6
2017-09-10T12:13:48.548Z,1000.6
2017-09-10T12:14:50.086Z,1000.6
2017-09-10T12:15:51.495Z,1000.6
2017-09-10T12:16:52.971Z,1000.6
2017-09-10T12:17:54.370Z,1000.6
2017-09-10T12:18:55.801Z,1000.6
2017-09-10T12:19:57.234Z,1000.5
2017-09-10T12:20:58.664Z,1000.5
2017-09-10T12:22:00.085Z,1000.5
2017-09-10T12:23:01.538Z,1000.5
2017-09-10T12:24:02.945Z,1000.5
2017-09-10T12:25:04.368Z,1000.4
2017-09-10T12:26:05.846Z,1000.5
2017-09-10T12:27:07.288Z,1000.5
2017-09-10T12:28:08.789Z,1000.6
2017-09-10T12:29:10.287Z,1000.5
2017-09-10T12:30:11.754Z,1000.5
2017-09-10T12:31:13.220Z,1000.5
2017-09-10T12:32:14.645Z,1000.5
2017-09-10T12:33:16.069Z,1000.4
2017-09-10T12:34:17.627Z,1000.5
2017-09-10T12:35:19.049Z,1000.4
2017-09-10T12:36:20.556Z,1000.5
2017-09-10T12:37:23.648Z,1000.5
2017-09-10T12:38:25.031Z,1000.4
2017-09-10T12:39:26.596Z,1000.4
2017-09-10T12:40:28.083Z,1000.5
2017-09-10T12:41:29.547Z,1000.5
2017-09-10T12:42:31.043Z,1000.5
2017-09-10T12:43:32.594Z,1000.5
2017-09-10T12:44:35.143Z,1000.5
2017-09-10T12:45:36.842Z,1000.5
2017-09-10T12:46:38.265Z,1000.5
2017-09-10T12:47:39.721Z,1000.5
2017-09-10T12:48:41.332Z,1000.5
2017-09-10T12:49:42.797Z,1000.5
2017-09-10T12:50:44.348Z,1000.5
2017-09-10T12:51:46.090Z,1000.4
2017-09-10T12:52:47.277Z,1000.4
2017-09-10T12:53:48.776Z,1000.3